Macuru Arrow — C6YH3 — position and weather

sailwx.info

Track history (hours):
 
Tides and Currents Weather Stations Pressure Air Temp Water Temp Dewpoint Dewpoint Depression Visibility Wind Speed Wind Dir Waves Ship Positions

Macuru Arrow

Last reported at 2014-Oct-02 22:33 UTC. Time now 2014-Oct-24 08:41 UTC.
Position S 24°06' W 046°22'.
Warning: this ship's position is 21 days out of date.

Length 225 m; draft 12.1 m.

Type: Cargo ship. MMSI: 311032500.

Date/timePositionNaut miles runAvg speedWind from/ knotsBaromVisibWave heightAir tempDewpointWater temp
2014-Oct-02 22:33S 24°06' W 046°22'8 7.5
2014-Oct-02 21:33S 23°60' W 046°19'2 2.0
2014-Oct-02 20:33S 23°58' W 046°18'0 0.0
2014-Oct-02 19:33S 23°58' W 046°18'0 0.0
2014-Oct-02 18:33S 23°58' W 046°18'0 0.0
2014-Oct-02 17:27S 23°58' W 046°18'0 0.0
2014-Oct-02 16:33S 23°58' W 046°18'0 0.0
2014-Oct-02 15:33S 23°58' W 046°18'0 0.0
2014-Oct-02 14:33S 23°58' W 046°18'0 0.0
2014-Oct-02 13:33S 23°58' W 046°18'0 0.0
2014-Oct-02 12:33S 23°58' W 046°18'0 0.0
2014-Oct-02 11:33S 23°58' W 046°18'0 0.0
2014-Oct-02 10:33S 23°58' W 046°18'0 0.0
2014-Oct-02 09:33S 23°58' W 046°18'0 0.0
2014-Oct-02 08:33S 23°58' W 046°18'0 0.0
2014-Oct-02 07:18S 23°58' W 046°18'0 0.0
2014-Oct-02 06:33S 23°58' W 046°18'0 0.0
2014-Oct-02 05:33S 23°58' W 046°18'0 0.0
2014-Oct-02 04:33S 23°58' W 046°18'0 0.0
2014-Oct-02 03:33S 23°58' W 046°18'0 0.0
2014-Oct-02 02:33S 23°58' W 046°18'0 0.0
2014-Oct-02 01:33S 23°58' W 046°18'0 0.0
2014-Oct-02 00:33S 23°58' W 046°18'0 0.0
2014-Oct-01 23:27S 23°58' W 046°18'0 0.0
2014-Oct-01 22:30S 23°58' W 046°18'0 0.0
2014-Oct-01 21:33S 23°58' W 046°18'0 0.0
2014-Oct-01 20:33S 23°58' W 046°18'0 0.0
2014-Oct-01 19:33S 23°58' W 046°18'0 0.0
2014-Oct-01 18:33S 23°58' W 046°18'0 0.0
2014-Oct-01 17:33S 23°58' W 046°18'0 0.0
2014-Oct-01 16:33S 23°58' W 046°18'0 0.0
2014-Oct-01 15:33S 23°58' W 046°18'0 0.0
2014-Oct-01 14:33S 23°58' W 046°18'0 0.0
2014-Oct-01 13:33S 23°58' W 046°18'0 0.0
2014-Oct-01 12:33S 23°58' W 046°18'0 0.0
2014-Oct-01 11:33S 23°58' W 046°18'0 0.0
2014-Oct-01 10:33S 23°58' W 046°18'0 0.0
2014-Oct-01 09:33S 23°58' W 046°18'0 0.0
2014-Oct-01 08:33S 23°58' W 046°18'0 0.0
2014-Oct-01 07:33S 23°58' W 046°18'0 0.1
2014-Oct-01 06:33S 23°58' W 046°18'5 5.2
2014-Oct-01 05:33S 24°02' W 046°21'4 4.3
2014-Oct-01 04:32S 24°07' W 046°21'0 0.0
2014-Oct-01 01:33S 24°07' W 046°21'4 4.1
2014-Oct-01 00:33S 24°11' W 046°22'  
Track history (hours):
 
Tides and Currents Weather Stations Pressure Air Temp Water Temp Dewpoint Dewpoint Depression Visibility Wind Speed Wind Dir Waves Ship Positions

Macuru Arrow

Last reported at 2014-Oct-02 22:33 UTC. Time now 2014-Oct-24 08:41 UTC.
Position S 24°06' W 046°22'.
Warning: this ship's position is 21 days out of date.

Length 225 m; draft 12.1 m.

Type: Cargo ship. MMSI: 311032500.

Date/timePositionNaut miles runAvg speedWind from/ knotsBaromVisibWave heightAir tempDewpointWater temp
2014-Oct-02 22:33S 24°06' W 046°22'8 7.5
2014-Oct-02 21:33S 23°60' W 046°19'2 2.0
2014-Oct-02 20:33S 23°58' W 046°18'0 0.0
2014-Oct-02 19:33S 23°58' W 046°18'0 0.0
2014-Oct-02 18:33S 23°58' W 046°18'0 0.0
2014-Oct-02 17:27S 23°58' W 046°18'0 0.0
2014-Oct-02 16:33S 23°58' W 046°18'0 0.0
2014-Oct-02 15:33S 23°58' W 046°18'0 0.0
2014-Oct-02 14:33S 23°58' W 046°18'0 0.0
2014-Oct-02 13:33S 23°58' W 046°18'0 0.0
2014-Oct-02 12:33S 23°58' W 046°18'0 0.0
2014-Oct-02 11:33S 23°58' W 046°18'0 0.0
2014-Oct-02 10:33S 23°58' W 046°18'0 0.0
2014-Oct-02 09:33S 23°58' W 046°18'0 0.0
2014-Oct-02 08:33S 23°58' W 046°18'0 0.0
2014-Oct-02 07:18S 23°58' W 046°18'0 0.0
2014-Oct-02 06:33S 23°58' W 046°18'0 0.0
2014-Oct-02 05:33S 23°58' W 046°18'0 0.0
2014-Oct-02 04:33S 23°58' W 046°18'0 0.0
2014-Oct-02 03:33S 23°58' W 046°18'0 0.0
2014-Oct-02 02:33S 23°58' W 046°18'0 0.0
2014-Oct-02 01:33S 23°58' W 046°18'0 0.0
2014-Oct-02 00:33S 23°58' W 046°18'0 0.0
2014-Oct-01 23:27S 23°58' W 046°18'0 0.0
2014-Oct-01 22:30S 23°58' W 046°18'0 0.0
2014-Oct-01 21:33S 23°58' W 046°18'0 0.0
2014-Oct-01 20:33S 23°58' W 046°18'0 0.0
2014-Oct-01 19:33S 23°58' W 046°18'0 0.0
2014-Oct-01 18:33S 23°58' W 046°18'0 0.0
2014-Oct-01 17:33S 23°58' W 046°18'0 0.0
2014-Oct-01 16:33S 23°58' W 046°18'0 0.0
2014-Oct-01 15:33S 23°58' W 046°18'0 0.0
2014-Oct-01 14:33S 23°58' W 046°18'0 0.0
2014-Oct-01 13:33S 23°58' W 046°18'0 0.0
2014-Oct-01 12:33S 23°58' W 046°18'0 0.0
2014-Oct-01 11:33S 23°58' W 046°18'0 0.0
2014-Oct-01 10:33S 23°58' W 046°18'0 0.0
2014-Oct-01 09:33S 23°58' W 046°18'0 0.0
2014-Oct-01 08:33S 23°58' W 046°18'0 0.0
2014-Oct-01 07:33S 23°58' W 046°18'0 0.1
2014-Oct-01 06:33S 23°58' W 046°18'5 5.2
2014-Oct-01 05:33S 24°02' W 046°21'4 4.3
2014-Oct-01 04:32S 24°07' W 046°21'0 0.0
2014-Oct-01 01:33S 24°07' W 046°21'4 4.1
2014-Oct-01 00:33S 24°11' W 046°22'  

Dump ship's entire track history